Time;durP1;ratioP1;P1;durP2;ratioP2;P2;SDS_P1;SDS_P2;PMS_P1;PMS_P2;Temp;Humidity;BMP_temperature;BMP_pressure;BME280_temperature;BME280_humidity;BME280_pressure;Samples;Min_cycle;Max_cycle;Signal;HPM_P1;HPM_P2
2023/03/17 00:00:14;;;;;;;5.53;3.90;;;6.80;75.30;;;;;;5052476;28;20521;-51
2023/03/17 00:02:44;;;;;;;5.73;4.37;;;6.40;74.90;;;;;;5034933;28;20465;-52
2023/03/17 00:05:17;;;;;;;6.90;4.33;;;6.50;75.60;;;;;;5052848;28;20410;-52
2023/03/17 00:07:45;;;;;;;5.37;3.70;;;6.50;75.90;;;;;;5052909;28;20432;-52
2023/03/17 00:10:17;;;;;;;8.03;4.47;;;6.30;75.70;;;;;;5052330;28;20484;-52
2023/03/17 00:12:45;;;;;;;7.13;4.40;;;6.70;76.50;;;;;;5034552;28;20480;-51
2023/03/17 00:15:13;;;;;;;8.20;4.20;;;6.40;75.60;;;;;;5034710;28;20430;-51
2023/03/17 00:17:41;;;;;;;7.73;4.37;;;6.40;76.30;;;;;;5052633;28;20535;-52
2023/03/17 00:20:18;;;;;;;9.57;4.37;;;6.40;76.20;;;;;;5034434;28;20978;-51
2023/03/17 00:22:45;;;;;;;4.60;3.80;;;6.40;76.60;;;;;;5052457;28;20428;-51
2023/03/17 00:25:23;;;;;;;6.63;4.63;;;6.40;76.50;;;;;;5052447;28;20440;-52
2023/03/17 00:27:50;;;;;;;7.43;4.73;;;6.40;76.70;;;;;;5052698;28;20412;-51
2023/03/17 00:30:17;;;;;;;6.73;4.90;;;6.30;76.80;;;;;;5052071;28;20442;-52
2023/03/17 00:32:45;;;;;;;6.40;4.70;;;6.50;76.70;;;;;;5034482;28;20465;-51
2023/03/17 00:35:19;;;;;;;11.63;4.03;;;6.40;76.80;;;;;;5052334;28;20436;-52
2023/03/17 00:37:46;;;;;;;8.00;4.97;;;6.20;76.80;;;;;;5052256;28;20412;-50
2023/03/17 00:40:20;;;;;;;6.57;4.77;;;6.50;77.10;;;;;;5033570;28;20521;-50
2023/03/17 00:42:47;;;;;;;8.93;5.40;;;6.40;77.20;;;;;;5034095;28;20471;-49
2023/03/17 00:45:14;;;;;;;7.77;4.43;;;6.30;77.30;;;;;;5034360;28;20421;-51
2023/03/17 00:47:41;;;;;;;6.20;4.10;;;6.20;77.20;;;;;;5052269;28;20443;-51
2023/03/17 00:50:12;;;;;;;9.10;5.00;;;6.10;77.20;;;;;;5033952;28;20450;-51
2023/03/17 00:52:41;;;;;;;9.53;4.80;;;6.40;77.20;;;;;;5034111;28;20471;-51
2023/03/17 00:55:10;;;;;;;7.33;4.80;;;6.20;77.50;;;;;;5052009;28;20435;-50
2023/03/17 00:57:37;;;;;;;7.57;4.83;;;6.40;77.80;;;;;;5052525;28;20404;-50
2023/03/17 01:00:07;;;;;;;6.77;4.63;;;6.10;77.50;;;;;;5033449;28;20822;-51
2023/03/17 01:02:34;;;;;;;11.03;4.90;;;6.30;77.80;;;;;;5051411;28;20449;-51
2023/03/17 01:05:01;;;;;;;11.03;5.13;;;6.40;79.00;;;;;;5034366;28;20497;-51
2023/03/17 01:07:29;;;;;;;6.77;4.97;;;6.20;78.00;;;;;;5052115;28;20433;-52
2023/03/17 01:09:57;;;;;;;6.77;5.47;;;6.00;77.80;;;;;;5051485;28;20415;-51
2023/03/17 01:12:25;;;;;;;8.90;4.83;;;6.10;78.00;;;;;;5033797;28;20467;-51
2023/03/17 01:14:52;;;;;;;9.97;5.07;;;6.10;78.20;;;;;;5033880;28;20452;-51
2023/03/17 01:17:18;;;;;;;8.73;4.50;;;6.20;78.50;;;;;;5051995;28;20429;-52
2023/03/17 01:19:46;;;;;;;11.43;4.47;;;6.20;78.30;;;;;;5051575;28;20742;-51
2023/03/17 01:22:13;;;;;;;7.70;5.20;;;6.40;78.80;;;;;;5051842;28;20419;-51
2023/03/17 01:24:40;;;;;;;6.57;4.40;;;6.30;78.90;;;;;;5051928;28;20531;-51
2023/03/17 01:27:09;;;;;;;7.83;4.70;;;6.20;78.90;;;;;;5033994;28;20449;-52
2023/03/17 01:29:37;;;;;;;11.03;5.37;;;6.30;79.10;;;;;;5033663;28;20451;-51
2023/03/17 01:32:04;;;;;;;6.50;4.90;;;6.20;78.90;;;;;;5052094;28;20461;-51
2023/03/17 01:34:31;;;;;;;6.90;5.20;;;6.20;79.00;;;;;;5034546;28;20448;-51
2023/03/17 01:36:58;;;;;;;9.20;4.93;;;6.30;79.60;;;;;;5052738;28;20951;-51
2023/03/17 01:39:26;;;;;;;7.30;5.10;;;6.20;79.20;;;;;;5052027;28;20415;-51
2023/03/17 01:41:55;;;;;;;6.20;4.67;;;6.30;79.80;;;;;;5034033;28;20450;-51
2023/03/17 01:44:24;;;;;;;9.07;5.03;;;6.20;79.60;;;;;;5034280;28;20455;-50
2023/03/17 01:46:51;;;;;;;7.40;5.20;;;5.70;79.10;;;;;;5034505;28;20427;-51
2023/03/17 01:49:28;;;;;;;7.50;4.70;;;6.30;80.00;;;;;;5051755;28;20440;-51
2023/03/17 01:52:02;;;;;;;7.83;5.00;;;6.20;80.10;;;;;;5051827;28;21019;-51
2023/03/17 01:54:36;;;;;;;7.60;5.30;;;6.40;80.40;;;;;;5055419;28;20442;-50
2023/03/17 01:57:10;;;;;;;9.13;5.37;;;6.30;80.60;;;;;;5055440;28;20406;-51
2023/03/17 01:59:44;;;;;;;10.80;4.93;;;6.30;80.80;;;;;;5037178;28;20471;-50
2023/03/17 02:02:14;;;;;;;10.13;4.80;;;5.70;80.00;;;;;;5037221;28;20484;-51
2023/03/17 02:04:41;;;;;;;10.03;5.17;;;6.20;81.20;;;;;;5037373;28;20434;-50
2023/03/17 02:07:09;;;;;;;10.47;6.03;;;6.40;81.20;;;;;;5055159;28;20422;-50
2023/03/17 02:09:39;;;;;;;8.87;5.20;;;6.10;81.10;;;;;;5036949;28;20621;-52
2023/03/17 02:12:08;;;;;;;9.93;4.83;;;6.30;80.90;;;;;;5054998;28;20516;-52
2023/03/17 02:14:35;;;;;;;9.13;4.73;;;6.20;81.30;;;;;;5037225;28;20479;-51
2023/03/17 02:17:03;;;;;;;7.63;5.10;;;5.60;80.90;;;;;;5054974;28;20432;-51
2023/03/17 02:19:30;;;;;;;10.27;5.83;;;6.10;81.40;;;;;;5054562;28;20431;-51
2023/03/17 02:21:59;;;;;;;7.80;5.03;;;6.20;81.40;;;;;;5054862;28;20880;-50
2023/03/17 02:24:31;;;;;;;8.77;6.50;;;5.70;81.10;;;;;;5037016;28;20447;-51
2023/03/17 02:27:26;;;;;;;7.23;5.40;;;5.90;81.20;;;;;;5054819;28;20436;-51
2023/03/17 02:29:53;;;;;;;8.10;5.20;;;6.10;81.90;;;;;;5036641;28;20419;-51
2023/03/17 02:32:20;;;;;;;11.00;5.70;;;6.00;81.80;;;;;;5036524;28;20852;-51
2023/03/17 02:34:48;;;;;;;7.70;5.40;;;6.00;81.80;;;;;;5036808;28;20459;-51
2023/03/17 02:37:18;;;;;;;7.73;5.77;;;5.60;81.40;;;;;;5054718;28;20794;-52
2023/03/17 02:39:45;;;;;;;8.20;6.37;;;6.10;81.90;;;;;;5054335;28;20469;-52
2023/03/17 02:42:12;;;;;;;7.97;5.60;;;6.40;82.30;;;;;;5054643;28;20774;-51
2023/03/17 02:44:40;;;;;;;8.77;5.93;;;6.20;81.80;;;;;;5036584;28;21008;-51
2023/03/17 02:47:07;;;;;;;9.13;5.30;;;6.20;82.00;;;;;;5036642;28;20505;-51
2023/03/17 02:49:36;;;;;;;9.53;5.60;;;6.20;81.80;;;;;;5054226;28;20493;-51
2023/03/17 02:52:03;;;;;;;7.73;5.00;;;6.30;81.70;;;;;;5054744;28;20805;-51
2023/03/17 02:54:31;;;;;;;7.27;5.00;;;6.10;81.90;;;;;;5054509;28;20436;-51
2023/03/17 02:56:57;;;;;;;10.17;6.00;;;6.20;81.90;;;;;;5054396;28;20414;-51
2023/03/17 02:59:24;;;;;;;6.67;5.20;;;6.20;82.20;;;;;;5053890;28;20416;-51
2023/03/17 03:01:51;;;;;;;9.83;5.97;;;6.40;81.80;;;;;;5054230;28;20451;-52
2023/03/17 03:04:18;;;;;;;10.20;6.00;;;6.30;82.30;;;;;;5053241;28;20416;-51
2023/03/17 03:06:45;;;;;;;6.23;4.60;;;6.20;82.10;;;;;;5036345;28;20463;-51
2023/03/17 03:09:13;;;;;;;9.00;5.10;;;6.20;81.80;;;;;;5053638;28;20766;-51
2023/03/17 03:11:41;;;;;;;10.03;5.33;;;6.10;82.00;;;;;;5053862;28;21059;-51
2023/03/17 03:14:08;;;;;;;9.37;5.87;;;6.10;81.90;;;;;;5054140;28;20410;-52
2023/03/17 03:16:34;;;;;;;7.63;5.10;;;6.30;82.20;;;;;;5054032;28;20417;-52
2023/03/17 03:19:04;;;;;;;8.30;5.50;;;6.30;82.20;;;;;;5054013;28;20407;-51
2023/03/17 03:21:38;;;;;;;9.57;5.97;;;6.10;81.90;;;;;;5053783;28;20459;-51
2023/03/17 03:24:06;;;;;;;8.90;5.60;;;6.10;82.00;;;;;;5053955;28;20758;-50
2023/03/17 03:26:32;;;;;;;9.10;5.73;;;6.40;82.00;;;;;;5035794;28;20431;-51
2023/03/17 03:29:01;;;;;;;7.57;5.50;;;6.10;81.70;;;;;;5053375;28;20407;-52
2023/03/17 03:31:27;;;;;;;10.50;5.37;;;6.10;81.80;;;;;;5053603;28;20465;-50
2023/03/17 03:33:54;;;;;;;8.70;5.40;;;6.10;81.70;;;;;;5053724;28;20791;-49
2023/03/17 03:36:22;;;;;;;7.13;5.77;;;6.50;82.10;;;;;;5035791;28;20853;-50
2023/03/17 03:38:49;;;;;;;11.30;5.70;;;6.30;81.90;;;;;;5053016;28;20782;-51
2023/03/17 03:41:41;;;;;;;8.90;4.93;;;6.10;81.60;;;;;;5053445;28;20430;-51
2023/03/17 03:44:09;;;;;;;10.20;6.00;;;6.30;81.60;;;;;;5053741;28;20429;-52
2023/03/17 03:46:35;;;;;;;8.20;5.60;;;6.10;81.30;;;;;;5053294;28;20501;-51
2023/03/17 03:49:02;;;;;;;8.90;5.90;;;6.50;81.70;;;;;;5052999;28;20453;-51
2023/03/17 03:51:29;;;;;;;9.20;6.30;;;6.30;81.50;;;;;;5053115;28;20834;-51
2023/03/17 03:53:56;;;;;;;8.53;5.97;;;6.10;81.20;;;;;;5053172;28;20407;-51
2023/03/17 03:56:23;;;;;;;8.80;5.10;;;6.10;81.10;;;;;;5053144;28;20434;-51
2023/03/17 03:58:50;;;;;;;9.47;5.93;;;6.40;81.60;;;;;;5034925;28;20423;-51
2023/03/17 04:01:18;;;;;;;7.87;5.10;;;6.10;81.20;;;;;;5034899;28;20484;-51
2023/03/17 04:03:46;;;;;;;8.60;5.60;;;6.30;81.40;;;;;;5035119;28;20447;-51
2023/03/17 04:06:12;;;;;;;9.73;5.77;;;6.20;81.30;;;;;;5053200;28;20443;-51
2023/03/17 04:08:39;;;;;;;9.97;4.93;;;6.20;81.30;;;;;;5052789;28;20924;-52
2023/03/17 04:11:06;;;;;;;10.20;5.27;;;6.20;81.30;;;;;;5053117;28;20799;-50
2023/03/17 04:13:33;;;;;;;9.87;5.90;;;6.20;81.30;;;;;;5053107;28;20432;-52
2023/03/17 04:16:00;;;;;;;9.93;6.10;;;6.20;81.30;;;;;;5052769;28;20896;-50
2023/03/17 04:18:28;;;;;;;6.97;4.80;;;6.20;81.30;;;;;;5052647;28;20417;-50
2023/03/17 04:20:54;;;;;;;8.10;5.30;;;6.40;81.60;;;;;;5052946;28;20446;-52
2023/03/17 04:23:21;;;;;;;8.63;5.50;;;6.50;81.50;;;;;;5052850;28;20432;-50
2023/03/17 04:25:50;;;;;;;12.80;5.90;;;6.10;81.00;;;;;;5052629;28;20903;-51
2023/03/17 04:28:21;;;;;;;8.53;5.40;;;6.40;81.60;;;;;;5034396;28;20440;-50
2023/03/17 04:30:48;;;;;;;7.23;5.30;;;6.10;81.00;;;;;;5052229;28;20472;-51
2023/03/17 04:33:14;;;;;;;8.33;6.00;;;6.10;81.00;;;;;;5051935;28;20794;-52
2023/03/17 04:35:42;;;;;;;8.47;5.30;;;6.10;81.10;;;;;;5052378;28;20460;-52
2023/03/17 04:38:11;;;;;;;12.23;6.20;;;6.10;81.10;;;;;;5052210;28;20451;-52
2023/03/17 04:40:37;;;;;;;10.80;5.10;;;6.10;81.10;;;;;;5052303;28;20446;-51
2023/03/17 04:43:05;;;;;;;8.00;5.30;;;6.30;80.90;;;;;;5052415;28;20425;-50
2023/03/17 04:45:32;;;;;;;6.20;5.47;;;5.60;80.10;;;;;;5052225;28;20471;-51
2023/03/17 04:47:58;;;;;;;7.30;4.70;;;6.20;80.50;;;;;;5052433;28;20406;-52
2023/03/17 04:50:25;;;;;;;8.10;5.60;;;6.30;81.20;;;;;;5051965;28;20433;-52
2023/03/17 04:52:53;;;;;;;7.93;5.03;;;5.90;80.70;;;;;;5052069;28;20464;-50
2023/03/17 04:55:20;;;;;;;7.20;5.27;;;5.50;80.20;;;;;;5052053;28;20409;-51
2023/03/17 04:57:47;;;;;;;6.80;5.63;;;5.70;80.20;;;;;;5052138;28;20532;-51
2023/03/17 05:00:14;;;;;;;12.83;5.73;;;6.10;80.90;;;;;;5051710;28;21005;-50
2023/03/17 05:02:41;;;;;;;11.27;5.77;;;6.00;80.80;;;;;;5052387;28;20537;-52
2023/03/17 05:05:08;;;;;;;9.23;7.20;;;6.30;81.10;;;;;;5051986;28;20422;-51
2023/03/17 05:07:35;;;;;;;8.60;5.97;;;6.30;80.70;;;;;;5051923;28;20455;-53
2023/03/17 05:10:04;;;;;;;10.33;5.50;;;6.00;80.80;;;;;;5051648;28;20444;-52
2023/03/17 05:12:31;;;;;;;6.50;4.97;;;5.90;80.70;;;;;;5051685;28;20450;-53
2023/03/17 05:14:57;;;;;;;10.73;6.13;;;6.10;80.90;;;;;;5051834;28;20458;-52
2023/03/17 05:17:24;;;;;;;6.30;5.07;;;6.00;80.30;;;;;;5051793;28;20440;-54
2023/03/17 05:19:51;;;;;;;8.70;5.33;;;6.10;80.80;;;;;;5051371;28;20402;-53
2023/03/17 05:22:17;;;;;;;6.20;4.60;;;6.10;80.70;;;;;;5051506;28;20458;-52
2023/03/17 05:24:44;;;;;;;8.10;5.20;;;6.20;80.40;;;;;;5051731;28;20454;-54
2023/03/17 05:27:12;;;;;;;9.13;5.93;;;5.90;80.20;;;;;;5052315;28;20531;-52
2023/03/17 05:29:39;;;;;;;9.33;5.23;;;6.10;80.40;;;;;;5055593;28;20771;-53
2023/03/17 05:32:06;;;;;;;7.22;5.07;;;6.30;80.40;;;;;;5055664;28;20528;-53
2023/03/17 05:34:33;;;;;;;8.90;4.90;;;6.00;80.20;;;;;;5055669;28;20677;-53
2023/03/17 05:37:00;;;;;;;11.37;5.57;;;5.70;79.50;;;;;;5055615;28;20440;-54
2023/03/17 05:39:26;;;;;;;8.13;5.90;;;6.10;79.70;;;;;;5055333;28;20460;-52
2023/03/17 05:41:53;;;;;;;10.93;5.33;;;6.20;79.80;;;;;;5055404;28;20427;-53
2023/03/17 05:44:21;;;;;;;7.63;4.80;;;6.20;79.80;;;;;;5055611;28;20450;-53
2023/03/17 05:46:47;;;;;;;15.50;6.07;;;6.20;79.60;;;;;;5055412;28;20769;-53
2023/03/17 05:49:14;;;;;;;7.53;5.30;;;6.30;79.80;;;;;;5055125;28;20499;-52
2023/03/17 05:51:41;;;;;;;10.00;5.50;;;6.20;79.30;;;;;;5037382;28;20548;-53
2023/03/17 05:54:08;;;;;;;7.47;4.53;;;6.30;79.60;;;;;;5055450;28;20407;-54
2023/03/17 05:56:35;;;;;;;6.90;4.80;;;6.40;80.30;;;;;;5055385;28;20417;-52
2023/03/17 05:59:02;;;;;;;12.10;5.87;;;6.00;79.00;;;;;;5055119;28;20426;-53
2023/03/17 06:01:31;;;;;;;9.27;5.00;;;6.60;79.50;;;;;;5054784;28;20976;-54
2023/03/17 06:03:59;;;;;;;7.00;4.40;;;6.20;78.40;;;;;;5055293;28;20781;-52
2023/03/17 06:06:26;;;;;;;8.83;5.80;;;6.30;79.00;;;;;;5055084;28;20421;-52
2023/03/17 06:08:53;;;;;;;10.00;5.07;;;6.50;79.10;;;;;;5054602;28;20927;-52
2023/03/17 06:11:20;;;;;;;7.10;5.10;;;6.50;79.10;;;;;;5054858;28;20487;-53
2023/03/17 06:13:47;;;;;;;7.00;4.77;;;6.10;78.50;;;;;;5054915;28;20415;-52
2023/03/17 06:16:13;;;;;;;10.77;6.10;;;6.70;78.80;;;;;;5054903;28;20877;-53
2023/03/17 06:18:42;;;;;;;6.87;5.30;;;6.30;78.50;;;;;;5036550;28;20510;-53
2023/03/17 06:21:08;;;;;;;14.70;7.00;;;6.60;78.70;;;;;;5054490;28;20453;-52
2023/03/17 06:23:35;;;;;;;12.60;7.50;;;6.60;78.30;;;;;;5054665;28;20456;-51
2023/03/17 06:26:02;;;;;;;15.83;6.40;;;6.50;78.00;;;;;;5054547;28;20411;-53
2023/03/17 06:28:28;;;;;;;7.27;5.83;;;6.70;77.80;;;;;;5036392;28;20425;-53
2023/03/17 06:30:55;;;;;;;8.90;5.33;;;6.70;78.10;;;;;;5054109;28;20411;-54
2023/03/17 06:33:23;;;;;;;5.93;4.77;;;6.50;77.80;;;;;;5054463;28;20873;-54
2023/03/17 06:35:51;;;;;;;6.67;4.50;;;6.70;78.10;;;;;;5054368;28;20465;-53
2023/03/17 06:38:19;;;;;;;11.13;6.70;;;6.70;78.00;;;;;;5053878;28;20420;-53
2023/03/17 06:40:46;;;;;;;14.57;7.83;;;6.60;77.80;;;;;;5054053;28;20445;-53
2023/03/17 06:43:13;;;;;;;15.27;6.50;;;6.50;77.80;;;;;;5053685;28;20432;-54
2023/03/17 06:45:40;;;;;;;10.67;5.20;;;6.70;77.90;;;;;;5053920;28;20447;-52
2023/03/17 06:48:07;;;;;;;9.27;5.63;;;6.80;77.70;;;;;;5053860;28;20414;-53
2023/03/17 06:50:34;;;;;;;7.20;5.50;;;7.00;77.80;;;;;;5054244;28;20444;-53
2023/03/17 06:53:02;;;;;;;11.30;5.80;;;6.80;77.50;;;;;;5053513;28;20485;-56
2023/03/17 06:55:28;;;;;;;11.97;5.70;;;6.60;76.90;;;;;;5035423;28;20430;-53
2023/03/17 06:57:55;;;;;;;7.30;5.30;;;6.30;76.40;;;;;;5054185;28;20524;-54
2023/03/17 07:00:22;;;;;;;9.13;4.93;;;6.60;76.60;;;;;;5053250;28;20415;-55
2023/03/17 07:02:50;;;;;;;9.83;5.10;;;7.00;77.00;;;;;;5053254;28;20512;-53
2023/03/17 07:05:22;;;;;;;7.83;4.83;;;6.80;76.70;;;;;;5053135;28;20838;-52
2023/03/17 07:07:49;;;;;;;11.57;5.77;;;7.00;76.50;;;;;;5053329;28;20439;-53
2023/03/17 07:10:18;;;;;;;14.80;5.87;;;7.10;76.40;;;;;;5053530;28;20426;-53
2023/03/17 07:12:45;;;;;;;8.60;5.60;;;7.20;76.40;;;;;;5053043;28;20511;-53
2023/03/17 07:15:12;;;;;;;9.87;5.37;;;7.00;75.70;;;;;;5053499;28;20409;-52
2023/03/17 07:17:38;;;;;;;7.10;5.03;;;6.40;75.40;;;;;;5053044;28;20475;-52
2023/03/17 07:20:06;;;;;;;12.47;4.90;;;7.60;76.00;;;;;;5053294;28;20524;-53
2023/03/17 07:22:33;;;;;;;8.53;5.40;;;7.20;75.30;;;;;;5035486;28;20486;-52
2023/03/17 07:24:59;;;;;;;6.90;5.23;;;7.30;75.50;;;;;;5053564;28;20433;-53
2023/03/17 07:27:28;;;;;;;12.30;6.60;;;7.50;75.80;;;;;;5053462;28;20492;-53
2023/03/17 07:29:54;;;;;;;11.23;6.90;;;7.90;76.10;;;;;;5052434;28;20539;-53
2023/03/17 07:32:21;;;;;;;9.60;6.00;;;7.10;75.10;;;;;;5052991;28;20460;-53
2023/03/17 07:34:48;;;;;;;9.50;5.60;;;7.50;75.20;;;;;;5053076;28;20428;-52
2023/03/17 07:37:14;;;;;;;10.70;6.13;;;7.50;74.80;;;;;;5053027;28;20840;-54
2023/03/17 07:39:41;;;;;;;7.47;5.87;;;7.50;74.50;;;;;;5052210;28;20946;-53
2023/03/17 07:42:09;;;;;;;9.77;6.13;;;7.70;74.30;;;;;;5052737;28;20457;-53
2023/03/17 07:44:40;;;;;;;8.37;5.60;;;7.60;73.40;;;;;;5052840;28;20439;-52
2023/03/17 07:47:07;;;;;;;11.83;6.30;;;7.80;73.70;;;;;;5052766;28;20446;-54
2023/03/17 07:49:34;;;;;;;7.67;5.33;;;7.80;74.50;;;;;;5051577;28;20767;-54
2023/03/17 07:52:02;;;;;;;14.30;5.57;;;7.90;73.30;;;;;;5052261;28;20455;-54
2023/03/17 07:54:29;;;;;;;7.20;4.97;;;8.10;73.00;;;;;;5052616;28;20461;-54
2023/03/17 07:56:55;;;;;;;7.80;5.30;;;8.10;72.70;;;;;;5052524;28;20417;-53
2023/03/17 07:59:22;;;;;;;7.50;5.23;;;8.10;72.60;;;;;;5052112;28;20413;-55
2023/03/17 08:01:50;;;;;;;7.33;5.10;;;8.30;72.40;;;;;;5052249;28;20440;-53
2023/03/17 08:04:17;;;;;;;9.60;5.50;;;8.10;71.80;;;;;;5051848;28;20965;-53
2023/03/17 08:06:45;;;;;;;9.73;6.30;;;8.20;72.00;;;;;;5052600;28;20416;-53
2023/03/17 08:09:13;;;;;;;7.13;4.90;;;8.30;71.70;;;;;;5052297;28;20434;-53
2023/03/17 08:11:40;;;;;;;9.37;5.53;;;8.40;71.80;;;;;;5052500;28;20448;-53
2023/03/17 08:14:08;;;;;;;7.57;5.50;;;8.20;71.20;;;;;;5052191;28;21013;-53
2023/03/17 08:16:34;;;;;;;9.73;5.53;;;8.70;71.00;;;;;;5033779;28;20446;-54
2023/03/17 08:19:03;;;;;;;6.47;4.30;;;8.50;71.10;;;;;;5051942;28;20435;-54
2023/03/17 08:21:30;;;;;;;11.40;5.50;;;8.70;70.90;;;;;;5052213;28;20475;-52
2023/03/17 08:23:57;;;;;;;6.60;4.90;;;8.10;69.00;;;;;;5052088;28;20800;-53
2023/03/17 08:26:24;;;;;;;8.77;4.70;;;8.60;68.90;;;;;;5051730;28;20785;-53
2023/03/17 08:28:51;;;;;;;5.63;4.77;;;8.90;69.50;;;;;;5051688;28;20409;-53
2023/03/17 08:31:20;;;;;;;11.63;4.33;;;8.90;68.40;;;;;;5051841;28;20421;-55
2023/03/17 08:33:48;;;;;;;8.70;4.43;;;9.30;68.60;;;;;;5051228;28;20522;-52
2023/03/17 08:36:17;;;;;;;12.60;5.60;;;8.90;67.90;;;;;;5052220;28;20768;-52
2023/03/17 08:38:44;;;;;;;10.00;5.13;;;9.30;68.00;;;;;;5051070;28;20440;-55
2023/03/17 08:41:13;;;;;;;7.57;4.80;;;9.20;67.40;;;;;;5051729;28;20562;-53
2023/03/17 08:43:42;;;;;;;7.13;4.70;;;9.50;67.80;;;;;;5052094;28;20805;-52
2023/03/17 08:46:13;;;;;;;9.80;4.57;;;9.00;66.20;;;;;;5051936;28;20816;-53
2023/03/17 08:48:40;;;;;;;9.00;4.93;;;9.50;65.80;;;;;;5051355;28;20413;-53
2023/03/17 08:51:07;;;;;;;8.50;5.30;;;9.40;65.40;;;;;;5051671;28;20978;-53
2023/03/17 08:53:35;;;;;;;7.20;4.90;;;10.00;65.20;;;;;;5051279;28;20534;-54
2023/03/17 08:56:03;;;;;;;6.13;4.77;;;9.60;65.50;;;;;;5051503;28;20812;-53
2023/03/17 08:58:30;;;;;;;9.30;5.67;;;9.10;64.80;;;;;;5051654;28;20497;-54
2023/03/17 09:00:59;;;;;;;9.13;4.67;;;10.20;64.70;;;;;;5051237;28;20462;-53
2023/03/17 09:03:26;;;;;;;7.57;4.47;;;10.20;63.80;;;;;;5033017;28;20430;-53
2023/03/17 09:05:53;;;;;;;7.17;5.17;;;9.80;64.60;;;;;;5051505;28;20431;-53
2023/03/17 09:08:20;;;;;;;9.77;5.00;;;10.20;63.30;;;;;;5051585;28;20421;-55
2023/03/17 09:10:48;;;;;;;8.07;4.20;;;10.30;63.70;;;;;;5051239;28;20823;-53
2023/03/17 09:13:16;;;;;;;8.60;4.67;;;10.00;63.30;;;;;;5051296;28;20449;-53
2023/03/17 09:15:43;;;;;;;6.27;4.03;;;10.10;63.20;;;;;;5051269;28;20438;-53
2023/03/17 09:18:10;;;;;;;5.60;4.70;;;10.30;63.30;;;;;;5051187;28;20414;-52
2023/03/17 09:20:36;;;;;;;7.53;4.60;;;10.20;62.20;;;;;;5050921;28;20405;-54
2023/03/17 09:23:06;;;;;;;8.60;4.73;;;10.30;62.40;;;;;;5033340;28;20858;-51
2023/03/17 09:25:34;;;;;;;6.30;4.50;;;10.30;62.00;;;;;;5051291;28;20440;-54
2023/03/17 09:28:03;;;;;;;7.90;4.10;;;10.90;63.20;;;;;;5051171;28;20589;-53
2023/03/17 09:30:31;;;;;;;7.82;4.90;;;10.30;62.30;;;;;;5049666;28;20844;-53
2023/03/17 09:32:57;;;;;;;7.53;4.40;;;10.90;61.80;;;;;;5050452;28;20217;-52
2023/03/17 09:35:26;;;;;;;5.60;4.37;;;10.80;61.30;;;;;;5051227;28;20448;-54
2023/03/17 09:37:53;;;;;;;7.53;4.63;;;10.70;61.10;;;;;;5051210;28;20489;-53
2023/03/17 09:40:25;;;;;;;7.83;4.87;;;11.10;61.40;;;;;;5050990;28;20434;-54
2023/03/17 09:42:58;;;;;;;8.20;5.00;;;10.90;60.90;;;;;;5051134;28;20517;-53
2023/03/17 09:45:33;;;;;;;9.83;5.70;;;11.40;61.80;;;;;;5051251;28;20848;-53
2023/03/17 09:48:27;;;;;;;6.53;4.50;;;11.20;61.20;;;;;;5051374;28;20466;-52
2023/03/17 09:50:56;;;;;;;8.10;4.87;;;11.10;60.60;;;;;;5038519;28;20451;-55
2023/03/17 09:53:32;;;;;;;7.07;3.93;;;11.00;60.50;;;;;;5050905;28;20596;-54
2023/03/17 09:56:02;;;;;;;10.60;4.90;;;11.20;60.30;;;;;;5051355;28;20492;-54
2023/03/17 09:58:32;;;;;;;9.30;4.03;;;11.10;60.20;;;;;;5050822;28;20435;-54
2023/03/17 10:01:01;;;;;;;10.73;4.17;;;11.40;60.30;;;;;;5050413;28;20455;-52
2023/03/17 10:03:28;;;;;;;6.10;3.67;;;11.30;60.00;;;;;;5051329;28;20512;-54
2023/03/17 10:06:07;;;;;;;9.07;5.13;;;11.30;59.90;;;;;;5051079;28;20439;-54
2023/03/17 10:08:50;;;;;;;10.23;5.10;;;11.00;59.00;;;;;;5051057;28;20505;-53
2023/03/17 10:11:27;;;;;;;7.33;4.27;;;11.90;59.50;;;;;;5050946;28;20432;-53
2023/03/17 10:14:00;;;;;;;7.10;5.33;;;11.30;58.80;;;;;;5053180;28;20472;-54
2023/03/17 10:16:37;;;;;;;11.53;4.67;;;11.70;59.00;;;;;;5054843;28;20516;-54
2023/03/17 10:19:11;;;;;;;6.87;4.50;;;11.60;59.00;;;;;;5054333;28;20856;-54
2023/03/17 10:21:48;;;;;;;10.70;3.77;;;11.80;59.20;;;;;;5054901;28;20468;-54
2023/03/17 10:24:15;;;;;;;6.50;4.00;;;11.70;58.60;;;;;;5054779;28;20446;-55
2023/03/17 10:26:45;;;;;;;9.23;4.27;;;12.20;59.60;;;;;;5054994;28;20440;-53
2023/03/17 10:29:16;;;;;;;7.17;4.20;;;11.60;59.30;;;;;;5054259;28;20936;-53
2023/03/17 10:31:44;;;;;;;6.77;4.10;;;11.90;59.30;;;;;;5054373;28;20453;-53
2023/03/17 10:34:16;;;;;;;5.70;4.47;;;11.90;59.20;;;;;;5054315;28;20999;-53
2023/03/17 10:36:45;;;;;;;48.37;12.40;;;11.30;58.40;;;;;;5054174;28;20439;-54
2023/03/17 10:39:14;;;;;;;10.03;4.17;;;12.10;58.70;;;;;;5053813;28;20495;-53
2023/03/17 10:41:47;;;;;;;5.50;3.77;;;12.00;58.00;;;;;;5053827;28;20431;-53
2023/03/17 10:44:22;;;;;;;7.40;4.07;;;11.70;57.90;;;;;;5054127;28;20404;-54
2023/03/17 10:46:55;;;;;;;8.80;3.90;;;12.10;57.90;;;;;;5054340;28;20783;-54
2023/03/17 10:49:23;;;;;;;5.67;3.87;;;11.90;57.70;;;;;;5053981;28;20904;-55
2023/03/17 10:51:52;;;;;;;8.03;4.20;;;12.60;58.00;;;;;;5053545;28;20455;-54
2023/03/17 10:54:23;;;;;;;7.30;4.43;;;12.30;56.60;;;;;;5054149;28;20790;-55
2023/03/17 10:56:59;;;;;;;9.80;4.10;;;12.20;57.80;;;;;;5054718;28;20423;-52
2023/03/17 10:59:29;;;;;;;7.70;3.80;;;12.60;57.70;;;;;;5053392;28;20448;-53
2023/03/17 11:01:59;;;;;;;7.90;4.67;;;12.50;57.90;;;;;;5054495;28;20469;-52
2023/03/17 11:04:29;;;;;;;11.13;4.30;;;11.90;57.20;;;;;;5054105;28;20797;-50
2023/03/17 11:06:57;;;;;;;8.83;3.87;;;12.70;57.80;;;;;;5053682;28;20445;-51
2023/03/17 11:09:25;;;;;;;11.20;4.50;;;13.00;58.00;;;;;;5053086;28;20441;-51
2023/03/17 11:12:01;;;;;;;7.53;4.10;;;13.20;57.90;;;;;;5053331;28;20486;-50
2023/03/17 11:14:29;;;;;;;5.90;4.07;;;12.80;57.60;;;;;;5053253;28;20537;-52
2023/03/17 11:16:59;;;;;;;9.20;4.43;;;13.20;57.90;;;;;;5053734;28;20966;-50
2023/03/17 11:19:37;;;;;;;7.00;4.33;;;12.90;57.50;;;;;;5053186;28;20899;-51
2023/03/17 11:22:10;;;;;;;13.70;4.47;;;13.00;57.60;;;;;;5053426;28;20465;-50
2023/03/17 11:24:44;;;;;;;7.83;3.70;;;13.10;57.50;;;;;;5052621;28;20441;-53
2023/03/17 11:27:17;;;;;;;7.47;3.90;;;13.30;57.10;;;;;;5053192;28;20470;-52
2023/03/17 11:30:17;;;;;;;8.77;4.10;;;13.10;56.80;;;;;;5052674;28;20445;-51
2023/03/17 11:32:55;;;;;;;6.37;3.80;;;13.10;56.90;;;;;;5053008;28;20461;-52
2023/03/17 11:35:43;;;;;;;7.83;3.80;;;13.20;57.20;;;;;;5053203;28;20590;-51
2023/03/17 11:38:24;;;;;;;6.73;3.60;;;13.20;56.70;;;;;;5053081;28;20400;-51
2023/03/17 11:41:08;;;;;;;6.03;3.70;;;13.20;56.50;;;;;;5053038;28;20801;-52
2023/03/17 11:43:44;;;;;;;7.90;4.43;;;13.30;56.50;;;;;;5035412;28;20415;-51
2023/03/17 11:46:15;;;;;;;7.07;4.03;;;13.30;56.40;;;;;;5035238;28;20450;-52
2023/03/17 11:48:51;;;;;;;6.23;3.27;;;13.30;56.50;;;;;;5052484;28;20829;-51
2023/03/17 11:51:29;;;;;;;9.73;3.53;;;13.40;56.10;;;;;;5052560;28;20459;-50
2023/03/17 11:54:12;;;;;;;4.80;3.10;;;13.50;56.40;;;;;;5053055;28;20504;-51
2023/03/17 11:56:42;;;;;;;5.73;3.27;;;13.30;54.90;;;;;;5051225;28;20493;-50
2023/03/17 11:59:19;;;;;;;7.43;3.80;;;13.20;55.20;;;;;;5052411;28;20445;-51
2023/03/17 12:01:54;;;;;;;5.80;3.20;;;13.70;55.40;;;;;;5052440;28;20552;-51
2023/03/17 12:04:33;;;;;;;8.97;3.47;;;13.60;55.40;;;;;;5052704;28;20524;-51
2023/03/17 12:07:08;;;;;;;10.73;3.97;;;13.60;55.50;;;;;;5052645;28;20521;-52
2023/03/17 12:09:40;;;;;;;11.90;3.43;;;13.90;55.90;;;;;;5051777;28;20442;-51
2023/03/17 12:12:11;;;;;;;8.37;3.70;;;13.80;55.70;;;;;;5052376;28;20457;-52
2023/03/17 12:14:41;;;;;;;5.17;3.47;;;13.50;55.80;;;;;;5052484;28;20478;-52
2023/03/17 12:17:14;;;;;;;6.70;3.37;;;13.40;55.80;;;;;;5052265;28;20409;-51
2023/03/17 12:19:53;;;;;;;9.40;3.40;;;13.60;56.20;;;;;;5051904;28;20437;-53
2023/03/17 12:22:27;;;;;;;6.50;3.60;;;13.80;56.40;;;;;;5052103;28;20437;-53
2023/03/17 12:25:03;;;;;;;8.20;4.50;;;14.10;56.40;;;;;;5052216;28;20423;-51
2023/03/17 12:27:33;;;;;;;9.63;5.00;;;13.80;56.50;;;;;;5052275;28;20441;-50
2023/03/17 12:30:05;;;;;;;10.53;4.67;;;13.80;56.50;;;;;;5051892;28;20441;-52
2023/03/17 12:32:39;;;;;;;10.30;5.13;;;14.10;56.60;;;;;;5051964;28;20566;-51
2023/03/17 12:35:23;;;;;;;7.80;3.80;;;13.90;56.50;;;;;;5052201;28;20573;-51
2023/03/17 12:37:50;;;;;;;8.57;4.60;;;14.20;56.40;;;;;;5052009;28;20433;-51
2023/03/17 12:40:22;;;;;;;7.13;3.50;;;14.40;56.80;;;;;;5051890;28;20491;-51
2023/03/17 12:42:52;;;;;;;9.37;3.80;;;13.70;56.10;;;;;;5051273;28;20480;-52
2023/03/17 12:45:41;;;;;;;7.97;3.93;;;14.00;56.70;;;;;;5051877;28;20435;-50
2023/03/17 12:48:42;;;;;;;4.60;2.77;;;14.10;56.30;;;;;;5051396;28;20434;-51
2023/03/17 12:51:34;;;;;;;5.70;3.17;;;14.20;56.00;;;;;;5051844;28;20467;-52
2023/03/17 12:54:01;;;;;;;13.70;4.30;;;14.20;56.20;;;;;;5051410;28;20475;-51
2023/03/17 12:56:30;;;;;;;6.13;3.30;;;14.00;55.60;;;;;;5051258;28;20431;-52
2023/03/17 12:59:02;;;;;;;9.60;3.93;;;14.30;55.90;;;;;;5051463;28;20439;-52
2023/03/17 13:01:31;;;;;;;7.10;3.30;;;14.60;56.10;;;;;;5051402;28;20534;-53
2023/03/17 13:04:05;;;;;;;6.53;3.00;;;14.40;55.70;;;;;;5051266;28;20490;-52